Time;durP1;ratioP1;P1;durP2;ratioP2;P2;SDS_P1;SDS_P2;PMS_P1;PMS_P2;Temp;Humidity;BMP_temperature;BMP_pressure;BME280_temperature;BME280_humidity;BME280_pressure;Samples;Min_cycle;Max_cycle;Signal;HPM_P1;HPM_P2
2022/06/05 00:01:20;;;;;;;0.05;0.05;;;;;;;;;;5032764;28;99689;-74
2022/06/05 00:04:08;;;;;;;0.17;0.17;;;;;;;;;;5032191;28;99248;-75
2022/06/05 00:06:41;;;;;;;0.00;0.00;;;;;;;;;;5015468;28;98534;-75
2022/06/05 00:09:10;;;;;;;0.00;0.00;;;;;;;;;;5035294;28;99471;-75
2022/06/05 00:11:43;;;;;;;0.00;0.00;;;;;;;;;;5033105;28;98343;-75
2022/06/05 00:14:10;;;;;;;0.10;0.10;;;;;;;;;;5032425;28;98909;-74
2022/06/05 00:16:37;;;;;;;0.00;0.00;;;;;;;;;;5032139;28;99114;-75
2022/06/05 00:19:04;;;;;;;0.10;0.10;;;;;;;;;;5031689;28;99188;-74
2022/06/05 00:21:30;;;;;;;0.00;0.00;;;;;;;;;;5032904;27;100044;-75
2022/06/05 00:23:57;;;;;;;0.17;0.17;;;;;;;;;;5035176;28;99652;-74
2022/06/05 00:26:27;;;;;;;0.00;0.00;;;;;;;;;;5035579;28;98448;-74
2022/06/05 00:28:53;;;;;;;0.17;0.17;;;;;;;;;;5017530;28;100794;-74
2022/06/05 00:31:29;;;;;;;0.00;0.00;;;;;;;;;;5037963;28;99127;-74
2022/06/05 00:33:57;;;;;;;0.00;0.00;;;;;;;;;;5035444;28;99203;-75
2022/06/05 00:36:23;;;;;;;0.30;0.30;;;;;;;;;;5035472;28;99424;-73
2022/06/05 00:38:53;;;;;;;0.00;0.00;;;;;;;;;;5035201;28;100153;-74
2022/06/05 00:41:19;;;;;;;0.00;0.00;;;;;;;;;;5035448;28;99505;-74
2022/06/05 00:43:47;;;;;;;0.63;0.63;;;;;;;;;;5034405;28;100328;-74
2022/06/05 00:46:13;;;;;;;0.10;0.10;;;;;;;;;;5017105;28;99256;-74
2022/06/05 00:48:40;;;;;;;0.15;0.15;;;;;;;;;;5035305;28;98674;-75
2022/06/05 00:51:06;;;;;;;0.10;0.10;;;;;;;;;;5034987;28;99467;-74
2022/06/05 00:53:32;;;;;;;0.20;0.20;;;;;;;;;;5037278;28;98393;-74
2022/06/05 00:55:59;;;;;;;0.00;0.00;;;;;;;;;;5034910;28;99638;-75
2022/06/05 00:58:25;;;;;;;0.00;0.00;;;;;;;;;;5034884;28;98532;-75
2022/06/05 01:00:53;;;;;;;0.00;0.00;;;;;;;;;;5017752;28;100311;-73
2022/06/05 01:03:21;;;;;;;0.00;0.00;;;;;;;;;;5034857;28;99812;-75
2022/06/05 01:05:47;;;;;;;0.40;0.40;;;;;;;;;;5016991;28;98455;-74
2022/06/05 01:08:14;;;;;;;0.00;0.00;;;;;;;;;;5034751;28;99756;-74
2022/06/05 01:10:53;;;;;;;0.00;0.00;;;;;;;;;;5034036;28;99556;-75
2022/06/05 01:13:19;;;;;;;0.17;0.17;;;;;;;;;;5020256;28;98584;-75
2022/06/05 01:15:45;;;;;;;0.00;0.00;;;;;;;;;;5034586;28;99663;-74
2022/06/05 01:18:12;;;;;;;0.00;0.00;;;;;;;;;;5036776;27;98459;-75
2022/06/05 01:20:47;;;;;;;0.10;0.10;;;;;;;;;;5035162;28;99172;-73
2022/06/05 01:23:28;;;;;;;0.00;0.00;;;;;;;;;;5038484;28;99765;-74
2022/06/05 01:26:00;;;;;;;0.00;0.00;;;;;;;;;;5017268;28;97722;-74
2022/06/05 01:28:26;;;;;;;;;;;;;;;;;;5035224;28;98629;-75
2022/06/05 01:31:12;;;;;;;0.00;0.00;;;;;;;;;;5034622;28;98964;-74
2022/06/05 01:33:42;;;;;;;0.00;0.00;;;;;;;;;;5033678;27;99183;-74
2022/06/05 01:36:17;;;;;;;0.00;0.00;;;;;;;;;;5037272;28;100827;-75
2022/06/05 01:38:47;;;;;;;0.05;0.05;;;;;;;;;;5034600;28;98348;-74
2022/06/05 01:41:16;;;;;;;0.30;0.30;;;;;;;;;;5034829;28;99374;-73
2022/06/05 01:43:44;;;;;;;0.32;0.32;;;;;;;;;;5033959;28;99248;-74
2022/06/05 01:46:25;;;;;;;0.00;0.00;;;;;;;;;;5034337;28;98384;-74
2022/06/05 01:49:00;;;;;;;1.15;0.43;;;;;;;;;;5034032;28;100567;-73
2022/06/05 01:51:33;;;;;;;0.00;0.00;;;;;;;;;;5034612;28;98899;-74
2022/06/05 01:54:05;;;;;;;0.10;0.10;;;;;;;;;;5034230;28;98479;-74
2022/06/05 01:56:36;;;;;;;0.00;0.00;;;;;;;;;;5034435;28;99407;-74
2022/06/05 01:59:09;;;;;;;0.05;0.05;;;;;;;;;;5036155;28;100085;-74
2022/06/05 02:01:37;;;;;;;0.00;0.00;;;;;;;;;;5034510;28;100055;-74
2022/06/05 02:04:16;;;;;;;0.00;0.00;;;;;;;;;;5033871;28;99631;-75
2022/06/05 02:06:46;;;;;;;0.05;0.05;;;;;;;;;;5034319;28;98346;-74
2022/06/05 02:09:17;;;;;;;0.10;0.10;;;;;;;;;;5033927;28;99422;-74
2022/06/05 02:11:43;;;;;;;0.10;0.10;;;;;;;;;;5033373;28;99592;-74
2022/06/05 02:14:10;;;;;;;1.08;0.17;;;;;;;;;;5034229;28;98490;-75
2022/06/05 02:16:37;;;;;;;0.35;0.35;;;;;;;;;;5034536;28;99386;-74
2022/06/05 02:19:09;;;;;;;0.00;0.00;;;;;;;;;;5033307;28;99636;-75
2022/06/05 02:21:37;;;;;;;0.00;0.00;;;;;;;;;;5037296;28;98372;-75
2022/06/05 02:24:07;;;;;;;0.00;0.00;;;;;;;;;;5032389;28;100247;-74
2022/06/05 02:26:34;;;;;;;0.20;0.20;;;;;;;;;;5033847;28;98530;-75
2022/06/05 02:29:05;;;;;;;0.30;0.30;;;;;;;;;;5033773;28;99413;-74
2022/06/05 02:31:40;;;;;;;0.00;0.00;;;;;;;;;;5033425;28;99929;-74
2022/06/05 02:34:13;;;;;;;0.00;0.00;;;;;;;;;;5033691;28;98360;-74
2022/06/05 02:36:58;;;;;;;0.32;0.32;;;;;;;;;;5015593;28;100114;-74
2022/06/05 02:39:24;;;;;;;0.05;0.05;;;;;;;;;;5033060;28;99989;-74
2022/06/05 02:41:56;;;;;;;0.30;0.30;;;;;;;;;;5034141;28;97570;-74
2022/06/05 02:44:29;;;;;;;0.10;0.10;;;;;;;;;;5017531;28;100035;-73
2022/06/05 02:46:58;;;;;;;0.10;0.10;;;;;;;;;;5033089;28;99411;-74
2022/06/05 02:49:28;;;;;;;0.10;0.10;;;;;;;;;;5015133;28;100423;-73
2022/06/05 02:51:56;;;;;;;0.00;0.00;;;;;;;;;;5032938;28;99163;-74
2022/06/05 02:54:25;;;;;;;0.10;0.10;;;;;;;;;;5033378;28;98363;-74
2022/06/05 02:56:52;;;;;;;0.00;0.00;;;;;;;;;;5033467;28;99403;-74
2022/06/05 02:59:19;;;;;;;0.00;0.00;;;;;;;;;;5032745;28;99650;-74
2022/06/05 03:04:30;;;;;;;0.00;0.00;;;;;;;;;;5033433;28;99150;-74
2022/06/05 03:06:57;;;;;;;0.15;0.15;;;;;;;;;;5019063;28;98597;-74
2022/06/05 03:09:23;;;;;;;0.10;0.10;;;;;;;;;;5033065;28;98888;-74
2022/06/05 03:11:51;;;;;;;0.00;0.00;;;;;;;;;;5032956;28;99506;-73
2022/06/05 03:14:18;;;;;;;0.03;0.03;;;;;;;;;;5032110;28;100132;-74
2022/06/05 03:16:44;;;;;;;0.00;0.00;;;;;;;;;;5032892;28;99652;-73
2022/06/05 03:19:11;;;;;;;0.00;0.00;;;;;;;;;;5032279;28;99490;-74
2022/06/05 03:21:37;;;;;;;0.00;0.00;;;;;;;;;;5032993;28;98325;-74
2022/06/05 03:24:05;;;;;;;0.00;0.00;;;;;;;;;;5015073;28;99288;-73
2022/06/05 03:26:31;;;;;;;0.00;0.00;;;;;;;;;;5035670;28;99700;-74
2022/06/05 03:28:58;;;;;;;0.00;0.00;;;;;;;;;;5032692;28;99237;-74
2022/06/05 03:31:24;;;;;;;0.10;0.10;;;;;;;;;;5017797;28;99254;-74
2022/06/05 03:33:51;;;;;;;0.10;0.10;;;;;;;;;;5035521;28;98367;-75
2022/06/05 03:36:18;;;;;;;0.00;0.00;;;;;;;;;;5033095;28;99119;-74
2022/06/05 03:38:45;;;;;;;0.20;0.20;;;;;;;;;;5031868;28;100344;-74
2022/06/05 03:41:13;;;;;;;0.00;0.00;;;;;;;;;;5014572;28;98572;-74
2022/06/05 03:43:39;;;;;;;0.00;0.00;;;;;;;;;;5032623;28;100447;-73
2022/06/05 03:46:07;;;;;;;0.00;0.00;;;;;;;;;;5032242;28;99602;-74
2022/06/05 03:48:34;;;;;;;0.00;0.00;;;;;;;;;;5036158;28;98372;-74
2022/06/05 03:51:10;;;;;;;0.00;0.00;;;;;;;;;;5032205;28;100217;-74
2022/06/05 03:53:37;;;;;;;0.00;0.00;;;;;;;;;;5032610;28;98462;-73
2022/06/05 03:56:08;;;;;;;0.00;0.00;;;;;;;;;;5034169;27;99485;-74
2022/06/05 03:58:34;;;;;;;0.00;0.00;;;;;;;;;;5035659;28;99570;-73
2022/06/05 04:01:00;;;;;;;0.00;0.00;;;;;;;;;;5036033;28;98385;-74
2022/06/05 04:03:27;;;;;;;0.20;0.20;;;;;;;;;;5035638;28;99207;-73
2022/06/05 04:05:53;;;;;;;0.00;0.00;;;;;;;;;;5035655;28;99309;-74
2022/06/05 04:08:20;;;;;;;0.00;0.00;;;;;;;;;;5035556;28;98403;-73
2022/06/05 04:10:46;;;;;;;0.38;0.38;;;;;;;;;;5038327;28;99323;-73
2022/06/05 04:13:12;;;;;;;0.00;0.00;;;;;;;;;;5036073;28;98428;-74
2022/06/05 04:15:39;;;;;;;0.00;0.00;;;;;;;;;;5036012;28;99356;-74
2022/06/05 04:18:06;;;;;;;0.00;0.00;;;;;;;;;;5017905;28;99668;-74
2022/06/05 04:20:33;;;;;;;0.03;0.03;;;;;;;;;;5001639;28;97643;-74
2022/06/05 04:23:00;;;;;;;0.10;0.10;;;;;;;;;;5035059;28;98559;-74
2022/06/05 04:25:27;;;;;;;0.00;0.00;;;;;;;;;;5035447;28;99667;-73
2022/06/05 04:27:54;;;;;;;0.00;0.00;;;;;;;;;;5033820;28;99185;-74
2022/06/05 04:30:21;;;;;;;0.20;0.20;;;;;;;;;;5033389;28;100216;-74
2022/06/05 04:32:47;;;;;;;0.00;0.00;;;;;;;;;;5038407;28;98811;-74
2022/06/05 04:35:14;;;;;;;0.00;0.00;;;;;;;;;;5035714;28;99147;-73
2022/06/05 04:37:40;;;;;;;0.00;0.00;;;;;;;;;;5035121;28;99627;-74
2022/06/05 04:40:07;;;;;;;0.03;0.03;;;;;;;;;;5035422;28;98368;-74
2022/06/05 04:42:33;;;;;;;0.00;0.00;;;;;;;;;;5035593;28;99368;-74
2022/06/05 04:45:00;;;;;;;0.00;0.00;;;;;;;;;;5035254;28;99323;-75
2022/06/05 04:47:26;;;;;;;0.00;0.00;;;;;;;;;;5033039;28;98438;-74
2022/06/05 04:49:53;;;;;;;0.08;0.08;;;;;;;;;;5034719;28;99561;-74
2022/06/05 04:52:19;;;;;;;0.47;0.47;;;;;;;;;;5033828;28;100510;-75
2022/06/05 04:54:45;;;;;;;0.00;0.00;;;;;;;;;;5038625;28;98385;-74
2022/06/05 04:57:12;;;;;;;0.10;0.10;;;;;;;;;;5035079;28;99505;-73
2022/06/05 04:59:38;;;;;;;0.00;0.00;;;;;;;;;;5035302;28;98303;-74
2022/06/05 05:02:05;;;;;;;0.00;0.00;;;;;;;;;;5035330;28;99471;-73
2022/06/05 05:04:31;;;;;;;0.13;0.13;;;;;;;;;;5034689;28;98669;-74
2022/06/05 05:06:57;;;;;;;0.10;0.10;;;;;;;;;;5034098;27;98436;-74
2022/06/05 05:09:24;;;;;;;0.03;0.03;;;;;;;;;;5035132;28;99382;-74
2022/06/05 05:11:50;;;;;;;0.35;0.35;;;;;;;;;;5034714;28;99525;-74
2022/06/05 05:14:17;;;;;;;0.00;0.00;;;;;;;;;;5035016;28;98409;-73
2022/06/05 05:16:43;;;;;;;0.00;0.00;;;;;;;;;;5019735;28;99326;-74
2022/06/05 05:19:10;;;;;;;0.00;0.00;;;;;;;;;;5017157;28;98619;-74
2022/06/05 05:21:36;;;;;;;0.20;0.20;;;;;;;;;;5016863;28;99480;-73
2022/06/05 05:24:03;;;;;;;1.70;0.38;;;;;;;;;;5034352;28;99445;-74
2022/06/05 05:26:31;;;;;;;0.10;0.10;;;;;;;;;;5017401;28;98418;-74
2022/06/05 05:28:58;;;;;;;0.00;0.00;;;;;;;;;;5034713;28;99758;-74
2022/06/05 05:31:26;;;;;;;0.00;0.00;;;;;;;;;;5034338;28;99659;-74
2022/06/05 05:33:53;;;;;;;0.30;0.30;;;;;;;;;;5035131;28;98141;-76
2022/06/05 05:36:21;;;;;;;0.45;0.45;;;;;;;;;;5037130;28;98598;-74
2022/06/05 05:44:18;;;;;;;0.28;0.28;;;;;;;;;;5020796;28;99604;-73
2022/06/05 05:46:45;;;;;;;0.10;0.10;;;;;;;;;;5034285;28;98589;-74
2022/06/05 05:49:13;;;;;;;0.20;0.20;;;;;;;;;;5034529;28;99351;-74
2022/06/05 05:51:40;;;;;;;0.00;0.00;;;;;;;;;;5034238;28;99466;-74
2022/06/05 05:54:06;;;;;;;0.00;0.00;;;;;;;;;;5034422;28;98448;-75
2022/06/05 05:56:33;;;;;;;0.00;0.00;;;;;;;;;;5034304;28;98682;-74
2022/06/05 05:58:59;;;;;;;0.00;0.00;;;;;;;;;;5037521;28;98878;-74
2022/06/05 06:01:26;;;;;;;0.10;0.10;;;;;;;;;;5034134;28;99133;-74
2022/06/05 06:03:53;;;;;;;0.08;0.08;;;;;;;;;;5033757;28;99998;-75
2022/06/05 06:06:24;;;;;;;0.35;0.35;;;;;;;;;;5033381;28;99120;-74
2022/06/05 06:08:51;;;;;;;;;;;;;;;;;;5034259;28;99588;-74
2022/06/05 06:11:18;;;;;;;0.20;0.20;;;;;;;;;;5032776;28;125529;-74
2022/06/05 06:13:44;;;;;;;0.00;0.00;;;;;;;;;;5033501;28;98428;-74
2022/06/05 06:16:12;;;;;;;0.00;0.00;;;;;;;;;;5033995;28;98472;-74
2022/06/05 06:18:40;;;;;;;0.10;0.10;;;;;;;;;;5033628;28;99865;-75
2022/06/05 06:21:07;;;;;;;0.10;0.10;;;;;;;;;;5037313;28;98341;-75
2022/06/05 06:23:33;;;;;;;0.00;0.00;;;;;;;;;;5033959;28;99011;-74
2022/06/05 06:26:03;;;;;;;0.00;0.00;;;;;;;;;;5033986;28;98345;-74
2022/06/05 06:28:29;;;;;;;0.10;0.10;;;;;;;;;;5033386;28;99181;-75
2022/06/05 06:30:56;;;;;;;0.10;0.10;;;;;;;;;;5015346;28;100438;-75
2022/06/05 06:33:22;;;;;;;0.32;0.32;;;;;;;;;;5033897;28;98226;-75
2022/06/05 06:35:49;;;;;;;0.00;0.00;;;;;;;;;;5033693;28;99952;-74
2022/06/05 06:38:15;;;;;;;0.10;0.10;;;;;;;;;;5033157;28;99689;-70
2022/06/05 06:40:41;;;;;;;1.77;0.32;;;;;;;;;;5033456;28;99439;-72
2022/06/05 06:43:08;;;;;;;0.00;0.00;;;;;;;;;;5036415;28;99623;-70
2022/06/05 06:45:34;;;;;;;0.10;0.10;;;;;;;;;;5033437;28;98353;-74
2022/06/05 06:48:01;;;;;;;0.00;0.00;;;;;;;;;;5033849;28;98888;-74
2022/06/05 06:50:27;;;;;;;0.00;0.00;;;;;;;;;;5033069;28;99602;-73
2022/06/05 06:52:54;;;;;;;0.00;0.00;;;;;;;;;;5033359;28;98317;-75
2022/06/05 06:55:20;;;;;;;0.20;0.20;;;;;;;;;;5032623;28;99116;-74
2022/06/05 06:57:47;;;;;;;0.00;0.00;;;;;;;;;;5033104;28;99753;-74
2022/06/05 07:00:17;;;;;;;0.10;0.10;;;;;;;;;;5032992;28;98322;-74
2022/06/05 07:02:43;;;;;;;0.00;0.00;;;;;;;;;;5032966;28;100287;-74
2022/06/05 07:05:10;;;;;;;0.10;0.10;;;;;;;;;;5018620;28;99432;-75
2022/06/05 07:07:37;;;;;;;0.00;0.00;;;;;;;;;;5033326;28;99160;-74
2022/06/05 07:10:04;;;;;;;0.10;0.10;;;;;;;;;;5031969;28;99850;-75
2022/06/05 07:12:32;;;;;;;0.03;0.03;;;;;;;;;;5033701;28;97633;-75
2022/06/05 07:14:58;;;;;;;0.08;0.08;;;;;;;;;;4999044;28;98991;-74
2022/06/05 07:17:27;;;;;;;0.17;0.17;;;;;;;;;;5032977;28;99568;-73
2022/06/05 07:19:53;;;;;;;0.00;0.00;;;;;;;;;;5032608;28;99112;-74
2022/06/05 07:22:20;;;;;;;0.28;0.05;;;;;;;;;;5032920;28;100297;-74
2022/06/05 07:24:46;;;;;;;0.10;0.10;;;;;;;;;;5032173;28;100084;-74
2022/06/05 07:27:12;;;;;;;0.10;0.10;;;;;;;;;;5035997;28;98373;-75
2022/06/05 07:29:39;;;;;;;0.15;0.15;;;;;;;;;;5031688;28;99720;-73
2022/06/05 07:32:05;;;;;;;0.30;0.30;;;;;;;;;;5035556;27;98427;-73
2022/06/05 07:34:32;;;;;;;0.10;0.10;;;;;;;;;;5036375;28;99195;-73
2022/06/05 07:36:58;;;;;;;0.28;0.28;;;;;;;;;;5036012;28;98994;-73
2022/06/05 07:39:26;;;;;;;0.10;0.10;;;;;;;;;;5036421;28;98222;-73
2022/06/05 07:41:52;;;;;;;0.00;0.00;;;;;;;;;;5036546;28;98813;-72
2022/06/05 07:44:18;;;;;;;0.10;0.10;;;;;;;;;;5017603;28;99858;-73
2022/06/05 07:46:45;;;;;;;0.10;0.10;;;;;;;;;;5039314;28;98388;-72
2022/06/05 07:49:12;;;;;;;0.20;0.20;;;;;;;;;;5035829;28;99477;-73
2022/06/05 07:54:33;;;;;;;0.00;0.00;;;;;;;;;;5035967;28;99725;-75
2022/06/05 07:57:03;;;;;;;0.10;0.10;;;;;;;;;;5035522;28;98885;-73
2022/06/05 07:59:30;;;;;;;0.05;0.05;;;;;;;;;;5035820;28;98281;-73
2022/06/05 08:01:58;;;;;;;0.13;0.13;;;;;;;;;;5035987;28;98846;-74
2022/06/05 08:04:29;;;;;;;0.10;0.10;;;;;;;;;;5035341;28;100139;-73
2022/06/05 08:06:57;;;;;;;0.10;0.10;;;;;;;;;;5036003;28;98377;-73
2022/06/05 08:09:24;;;;;;;0.00;0.00;;;;;;;;;;5038003;28;99461;-73
2022/06/05 08:11:51;;;;;;;0.10;0.10;;;;;;;;;;5035873;28;98876;-73
2022/06/05 08:14:17;;;;;;;0.00;0.00;;;;;;;;;;5035780;28;99664;-74
2022/06/05 08:16:44;;;;;;;0.08;0.08;;;;;;;;;;5034730;28;99205;-73
2022/06/05 08:19:16;;;;;;;0.17;0.10;;;;;;;;;;5035877;28;98404;-74
2022/06/05 08:21:42;;;;;;;0.10;0.10;;;;;;;;;;5035795;28;99245;-75
2022/06/05 08:24:09;;;;;;;0.28;0.28;;;;;;;;;;5035410;28;99953;-74
2022/06/05 08:26:35;;;;;;;0.20;0.20;;;;;;;;;;5041111;27;97655;-75
2022/06/05 08:29:02;;;;;;;0.10;0.10;;;;;;;;;;5055707;27;98953;-76
2022/06/05 08:31:29;;;;;;;0.30;0.30;;;;;;;;;;5058875;27;100115;-74
2022/06/05 08:33:57;;;;;;;0.20;0.20;;;;;;;;;;5037294;27;102315;-76
2022/06/05 08:36:25;;;;;;;0.10;0.10;;;;;;;;;;5055332;27;99916;-74
2022/06/05 08:42:26;;;;;;;0.10;0.10;;;;;;;;;;5051998;27;128921;-77
2022/06/05 08:44:58;;;;;;;0.10;0.10;;;;;;;;;;5038076;27;99097;-79
2022/06/05 08:47:33;;;;;;;0.30;0.30;;;;;;;;;;5055606;27;98637;-77
2022/06/05 08:50:14;;;;;;;0.17;0.17;;;;;;;;;;5037041;27;102019;-78
2022/06/05 08:53:03;;;;;;;0.20;0.20;;;;;;;;;;5038075;27;98628;-79
2022/06/05 08:55:29;;;;;;;0.40;0.40;;;;;;;;;;5058985;27;98833;-78
2022/06/05 08:58:30;;;;;;;0.30;0.30;;;;;;;;;;5055142;27;99316;-77
2022/06/05 09:01:17;;;;;;;0.20;0.20;;;;;;;;;;5054616;27;99195;-78
2022/06/05 09:04:01;;;;;;;0.10;0.10;;;;;;;;;;5055606;27;99454;-77
2022/06/05 09:06:37;;;;;;;0.17;0.17;;;;;;;;;;5020191;27;100622;-80
2022/06/05 09:09:10;;;;;;;0.38;0.38;;;;;;;;;;5037160;27;98526;-76
2022/06/05 09:11:45;;;;;;;0.10;0.10;;;;;;;;;;5055300;27;99360;-76
2022/06/05 09:14:20;;;;;;;0.10;0.10;;;;;;;;;;5054683;27;99285;-77
2022/06/05 09:16:53;;;;;;;0.13;0.13;;;;;;;;;;5055123;27;98434;-76
2022/06/05 09:19:23;;;;;;;0.22;0.22;;;;;;;;;;5058356;27;99291;-77
2022/06/05 09:22:04;;;;;;;0.10;0.10;;;;;;;;;;5036916;27;98425;-74
2022/06/05 09:24:31;;;;;;;0.30;0.30;;;;;;;;;;5054978;27;99416;-76
2022/06/05 09:27:02;;;;;;;0.20;0.20;;;;;;;;;;5053861;27;101246;-76
2022/06/05 09:29:42;;;;;;;0.20;0.20;;;;;;;;;;5055093;27;98403;-77
2022/06/05 09:32:20;;;;;;;0.20;0.20;;;;;;;;;;5054947;27;99422;-76
2022/06/05 09:34:50;;;;;;;0.10;0.10;;;;;;;;;;5054647;27;99658;-75
2022/06/05 09:41:53;;;;;;;;;;;;;;;;;;;;;
2022/06/05 09:44:43;;;;;;;0.10;0.10;;;;;;;;;;5036732;27;98408;-81
2022/06/05 09:47:24;;;;;;;0.50;0.40;;;;;;;;;;5055145;27;97662;-79
2022/06/05 09:49:54;;;;;;;0.10;0.10;;;;;;;;;;5036459;27;99642;-76
2022/06/05 09:52:22;;;;;;;0.15;0.15;;;;;;;;;;5036479;27;98425;-78
2022/06/05 09:55:08;;;;;;;0.10;0.10;;;;;;;;;;5053536;27;99467;-77
2022/06/05 10:00:25;;;;;;;0.10;0.10;;;;;;;;;;5053441;27;117591;-77
2022/06/05 10:02:56;;;;;;;0.10;0.10;;;;;;;;;;5054463;27;100460;-78
2022/06/05 10:05:26;;;;;;;0.35;0.35;;;;;;;;;;5057142;27;99170;-78
2022/06/05 10:08:00;;;;;;;0.10;0.10;;;;;;;;;;5054173;27;99861;-77
2022/06/05 10:10:32;;;;;;;0.15;0.15;;;;;;;;;;5053598;27;99258;-76
2022/06/05 10:13:05;;;;;;;0.13;0.13;;;;;;;;;;5054723;27;97619;-77
2022/06/05 10:15:38;;;;;;;0.35;0.35;;;;;;;;;;5053665;27;98429;-86
2022/06/05 10:18:10;;;;;;;0.10;0.10;;;;;;;;;;5053913;27;99274;-76
2022/06/05 10:20:46;;;;;;;4.90;0.80;;;;;;;;;;5053534;27;99190;-79
2022/06/05 10:23:32;;;;;;;0.28;0.28;;;;;;;;;;5054137;27;100391;-78
2022/06/05 10:29:13;;;;;;;0.10;0.10;;;;;;;;;;5057603;27;98342;-77
2022/06/05 10:31:41;;;;;;;0.10;0.10;;;;;;;;;;5053750;27;99615;-76
2022/06/05 10:34:15;;;;;;;0.20;0.20;;;;;;;;;;5053941;27;98346;-77
2022/06/05 10:36:45;;;;;;;0.10;0.10;;;;;;;;;;5053943;27;99786;-77
2022/06/05 10:39:28;;;;;;;0.10;0.10;;;;;;;;;;5054139;27;98980;-78
2022/06/05 10:42:00;;;;;;;0.20;0.20;;;;;;;;;;5054052;27;98508;-79
2022/06/05 10:44:33;;;;;;;0.32;0.32;;;;;;;;;;5054010;27;98988;-78
2022/06/05 10:47:09;;;;;;;0.40;0.40;;;;;;;;;;5052560;27;99927;-77
2022/06/05 10:49:55;;;;;;;0.30;0.30;;;;;;;;;;5053669;27;98511;-82
2022/06/05 10:55:35;;;;;;;0.40;0.40;;;;;;;;;;5045126;27;98461;-77
2022/06/05 10:58:11;;;;;;;0.28;0.28;;;;;;;;;;5035525;27;101457;-78
2022/06/05 11:00:50;;;;;;;0.20;0.20;;;;;;;;;;5052813;27;99703;-77
2022/06/05 11:03:20;;;;;;;0.80;0.80;;;;;;;;;;5053465;27;98263;-77
2022/06/05 11:05:55;;;;;;;0.17;0.17;;;;;;;;;;5052620;27;98734;-76
2022/06/05 11:08:40;;;;;;;0.20;0.20;;;;;;;;;;5053113;27;100021;-76
2022/06/05 11:14:02;;;;;;;0.20;0.20;;;;;;;;;;5052519;27;99401;-76
2022/06/05 11:16:57;;;;;;;0.20;0.20;;;;;;;;;;5056279;27;100509;-77
2022/06/05 11:19:32;;;;;;;0.20;0.20;;;;;;;;;;5053398;27;99446;-75
2022/06/05 11:22:01;;;;;;;0.20;0.20;;;;;;;;;;5052948;27;99694;-76
2022/06/05 11:24:33;;;;;;;0.40;0.40;;;;;;;;;;5052746;27;98861;-76
2022/06/05 11:27:05;;;;;;;0.10;0.10;;;;;;;;;;5053210;27;99407;-76
2022/06/05 11:29:52;;;;;;;0.30;0.30;;;;;;;;;;5052889;27;99829;-76
2022/06/05 11:32:32;;;;;;;0.25;0.25;;;;;;;;;;5053601;27;97715;-76
2022/06/05 11:35:15;;;;;;;0.20;0.20;;;;;;;;;;5053082;27;99021;-77
2022/06/05 11:38:01;;;;;;;0.30;0.30;;;;;;;;;;5052620;27;100241;-75
2022/06/05 11:40:28;;;;;;;0.10;0.10;;;;;;;;;;5055968;27;99088;-75
2022/06/05 11:43:09;;;;;;;0.30;0.30;;;;;;;;;;5052587;27;99965;-77
2022/06/05 11:45:41;;;;;;;0.10;0.10;;;;;;;;;;5053003;27;98496;-76
2022/06/05 11:48:19;;;;;;;0.20;0.20;;;;;;;;;;5052877;27;99149;-77
2022/06/05 11:50:57;;;;;;;0.30;0.30;;;;;;;;;;5052614;27;99642;-76
2022/06/05 11:53:45;;;;;;;0.20;0.20;;;;;;;;;;5052516;27;98371;-78
2022/06/05 11:56:17;;;;;;;0.10;0.10;;;;;;;;;;5052801;27;99343;-76
2022/06/05 11:58:57;;;;;;;0.20;0.20;;;;;;;;;;5053100;27;98363;-76
2022/06/05 12:01:26;;;;;;;0.28;0.28;;;;;;;;;;5056149;27;98547;-75
2022/06/05 12:03:58;;;;;;;0.30;0.30;;;;;;;;;;5057503;27;99522;-76
2022/06/05 12:06:32;;;;;;;0.20;0.20;;;;;;;;;;5053708;27;100161;-76
2022/06/05 12:09:00;;;;;;;0.28;0.28;;;;;;;;;;5052949;27;99359;-76
2022/06/05 12:11:46;;;;;;;0.30;0.30;;;;;;;;;;5052223;27;99134;-74
2022/06/05 12:14:18;;;;;;;0.10;0.10;;;;;;;;;;5052617;27;98451;-76
2022/06/05 12:16:46;;;;;;;0.32;0.32;;;;;;;;;;5053356;27;99344;-74
2022/06/05 12:19:25;;;;;;;0.30;0.30;;;;;;;;;;5055720;27;99486;-76
2022/06/05 12:21:52;;;;;;;0.20;0.20;;;;;;;;;;5056173;27;98295;-75
2022/06/05 12:24:22;;;;;;;0.30;0.30;;;;;;;;;;5041273;27;101845;-74
2022/06/05 12:26:51;;;;;;;0.17;0.17;;;;;;;;;;5055915;27;98412;-76
2022/06/05 12:29:44;;;;;;;0.38;0.38;;;;;;;;;;5055741;27;99507;-74
2022/06/05 12:32:22;;;;;;;0.10;0.10;;;;;;;;;;5051309;27;100588;-75
2022/06/05 12:35:08;;;;;;;0.20;0.20;;;;;;;;;;5055650;27;98517;-75
2022/06/05 12:37:38;;;;;;;0.20;0.20;;;;;;;;;;5037237;27;101126;-74
2022/06/05 12:40:15;;;;;;;0.10;0.10;;;;;;;;;;5055365;27;99717;-74
2022/06/05 12:42:48;;;;;;;0.20;0.20;;;;;;;;;;5037900;27;98426;-74
2022/06/05 12:45:17;;;;;;;0.20;0.20;;;;;;;;;;5055724;27;99492;-74
2022/06/05 12:47:43;;;;;;;0.10;0.10;;;;;;;;;;5058429;27;99594;-72
2022/06/05 12:50:29;;;;;;;0.28;0.22;;;;;;;;;;5052696;27;99399;-72
2022/06/05 12:53:08;;;;;;;0.10;0.10;;;;;;;;;;5045289;27;99631;-73
2022/06/05 12:55:40;;;;;;;0.20;0.20;;;;;;;;;;5041333;27;98443;-74
2022/06/05 12:58:15;;;;;;;0.20;0.20;;;;;;;;;;5035126;27;100234;-74
2022/06/05 13:01:02;;;;;;;0.10;0.10;;;;;;;;;;5034707;28;99818;-74
2022/06/05 13:03:42;;;;;;;0.30;0.30;;;;;;;;;;5035131;28;98894;-73
2022/06/05 13:06:27;;;;;;;0.10;0.10;;;;;;;;;;5035190;28;99622;-73
2022/06/05 13:08:59;;;;;;;0.10;0.10;;;;;;;;;;5034951;27;99803;-74
2022/06/05 13:11:34;;;;;;;0.20;0.20;;;;;;;;;;5037504;27;99408;-75
2022/06/05 13:14:07;;;;;;;0.10;0.10;;;;;;;;;;5034183;27;99618;-75
2022/06/05 13:16:55;;;;;;;0.10;0.10;;;;;;;;;;5034914;27;97683;-72
2022/06/05 13:19:22;;;;;;;0.38;0.38;;;;;;;;;;5037269;27;98745;-72
2022/06/05 13:22:11;;;;;;;0.10;0.10;;;;;;;;;;5039212;27;99675;-72
2022/06/05 13:24:53;;;;;;;0.10;0.10;;;;;;;;;;5041021;27;99188;-73
2022/06/05 13:27:20;;;;;;;0.10;0.10;;;;;;;;;;5033920;27;100524;-73
2022/06/05 13:29:54;;;;;;;0.00;0.00;;;;;;;;;;5033717;27;100077;-72
2022/06/05 13:32:44;;;;;;;0.20;0.20;;;;;;;;;;5033956;27;99330;-72
2022/06/05 13:35:21;;;;;;;0.20;0.20;;;;;;;;;;5036940;27;99615;-72
2022/06/05 13:38:02;;;;;;;0.10;0.10;;;;;;;;;;5037720;27;98424;-76
2022/06/05 13:40:33;;;;;;;0.22;0.22;;;;;;;;;;5035470;27;99514;-73
2022/06/05 13:43:01;;;;;;;0.10;0.10;;;;;;;;;;5033896;27;99226;-74
2022/06/05 13:45:46;;;;;;;0.17;0.17;;;;;;;;;;5032913;27;98481;-73
2022/06/05 13:48:25;;;;;;;0.28;0.28;;;;;;;;;;5038551;27;100789;-70
2022/06/05 13:51:10;;;;;;;0.10;0.10;;;;;;;;;;5032747;27;100221;-72
2022/06/05 13:53:41;;;;;;;0.10;0.10;;;;;;;;;;5033664;27;98901;-72
2022/06/05 13:56:17;;;;;;;0.10;0.10;;;;;;;;;;5034475;27;99290;-73
2022/06/05 13:59:03;;;;;;;0.20;0.20;;;;;;;;;;5038649;27;100307;-73
2022/06/05 14:01:30;;;;;;;0.03;0.03;;;;;;;;;;5033293;27;99360;-73
2022/06/05 14:03:58;;;;;;;0.08;0.08;;;;;;;;;;5033511;28;100006;-73
2022/06/05 14:06:33;;;;;;;0.10;0.10;;;;;;;;;;5033609;28;99390;-73
2022/06/05 14:09:01;;;;;;;0.20;0.20;;;;;;;;;;5034089;28;99305;-74
2022/06/05 14:11:45;;;;;;;0.10;0.10;;;;;;;;;;5015334;28;101389;-69
2022/06/05 14:14:12;;;;;;;0.10;0.10;;;;;;;;;;5033275;28;98383;-73
2022/06/05 14:16:46;;;;;;;0.20;0.20;;;;;;;;;;5033596;28;99033;-75
2022/06/05 14:19:19;;;;;;;0.00;0.00;;;;;;;;;;5036968;28;99260;-73
2022/06/05 14:21:52;;;;;;;0.10;0.10;;;;;;;;;;5033739;28;99734;-74
2022/06/05 14:24:24;;;;;;;0.22;0.22;;;;;;;;;;5032755;28;99575;-73
2022/06/05 14:26:53;;;;;;;0.10;0.10;;;;;;;;;;5033599;28;98459;-75
2022/06/05 14:29:31;;;;;;;0.10;0.10;;;;;;;;;;5033698;28;99211;-73
2022/06/05 14:32:03;;;;;;;0.20;0.20;;;;;;;;;;5033004;28;99627;-73
2022/06/05 14:34:31;;;;;;;0.40;0.40;;;;;;;;;;5033857;28;97674;-75
2022/06/05 14:37:05;;;;;;;0.20;0.20;;;;;;;;;;5033264;28;98405;-75
2022/06/05 14:39:34;;;;;;;0.10;0.10;;;;;;;;;;5032725;27;99623;-74
2022/06/05 14:42:17;;;;;;;0.10;0.10;;;;;;;;;;5035343;28;99126;-73
2022/06/05 14:44:48;;;;;;;0.10;0.10;;;;;;;;;;5033076;28;99631;-73
2022/06/05 14:47:17;;;;;;;0.10;0.10;;;;;;;;;;5033157;28;99221;-72
2022/06/05 14:49:52;;;;;;;0.00;0.00;;;;;;;;;;5033272;28;99438;-73
2022/06/05 14:52:36;;;;;;;0.30;0.30;;;;;;;;;;5015195;28;103411;-75
2022/06/05 14:58:10;;;;;;;0.20;0.17;;;;;;;;;;5033124;28;99292;-74
2022/06/05 15:01:03;;;;;;;0.10;0.10;;;;;;;;;;5032969;28;99033;-74
2022/06/05 15:03:49;;;;;;;0.03;0.03;;;;;;;;;;5028485;28;98536;-74
2022/06/05 15:06:18;;;;;;;0.20;0.20;;;;;;;;;;5018453;28;99504;-74
2022/06/05 15:09:04;;;;;;;0.10;0.10;;;;;;;;;;5032340;28;99154;-75
2022/06/05 15:11:34;;;;;;;0.10;0.10;;;;;;;;;;5032763;28;100103;-76
2022/06/05 15:14:04;;;;;;;0.20;0.20;;;;;;;;;;5032596;28;99794;-76
2022/06/05 15:16:37;;;;;;;0.08;0.08;;;;;;;;;;5032722;28;98446;-75
2022/06/05 15:19:05;;;;;;;0.10;0.10;;;;;;;;;;5032936;28;99239;-74
2022/06/05 15:21:47;;;;;;;0.08;0.08;;;;;;;;;;5032577;28;99111;-75
2022/06/05 15:24:29;;;;;;;0.10;0.10;;;;;;;;;;5032864;28;98385;-75
2022/06/05 15:27:16;;;;;;;0.00;0.00;;;;;;;;;;5033440;28;98786;-77
2022/06/05 15:29:50;;;;;;;0.00;0.00;;;;;;;;;;4999992;28;98376;-76
2022/06/05 15:36:02;;;;;;;0.05;0.05;;;;;;;;;;5016022;28;99783;-78
2022/06/05 15:38:36;;;;;;;0.30;0.10;;;;;;;;;;4998210;28;98536;-77
2022/06/05 15:41:14;;;;;;;0.13;0.13;;;;;;;;;;5015497;28;98865;-78
2022/06/05 15:43:55;;;;;;;0.05;0.05;;;;;;;;;;5032177;28;99212;-77
2022/06/05 15:46:22;;;;;;;;;;;;;;;;;;5033482;28;98421;-77